Time;durP1;ratioP1;P1;durP2;ratioP2;P2;SDS_P1;SDS_P2;PMS_P1;PMS_P2;Temp;Humidity;BMP_temperature;BMP_pressure;BME280_temperature;BME280_humidity;BME280_pressure;Samples;Min_cycle;Max_cycle;Signal;HPM_P1;HPM_P2
2022/10/04 00:01:04;;;;;;;7.53;1.40;;;;;;;;;;5136192;27;20453;-67
2022/10/04 00:03:35;;;;;;;4.90;1.70;;;;;;;;;;5117829;28;20462;-68
2022/10/04 00:06:02;;;;;;;7.93;1.50;;;;;;;;;;5117941;28;20484;-68
2022/10/04 00:08:34;;;;;;;5.60;1.00;;;;;;;;;;5117972;28;20477;-69
2022/10/04 00:11:03;;;;;;;4.73;1.50;;;;;;;;;;5128125;27;20446;-69
2022/10/04 00:13:31;;;;;;;6.53;1.80;;;;;;;;;;5138300;27;20458;-69
2022/10/04 00:15:58;;;;;;;9.30;2.53;;;;;;;;;;5137627;27;20457;-69
2022/10/04 00:18:30;;;;;;;5.70;2.80;;;;;;;;;;5136554;27;20480;-69
2022/10/04 00:21:00;;;;;;;4.70;1.77;;;;;;;;;;5136523;27;20767;-69
2022/10/04 00:23:29;;;;;;;5.57;1.97;;;;;;;;;;5136984;27;20457;-69
2022/10/04 00:25:57;;;;;;;15.27;2.20;;;;;;;;;;5136784;27;20445;-69
2022/10/04 00:28:42;;;;;;;7.53;2.30;;;;;;;;;;5136663;27;20542;-69
2022/10/04 00:31:17;;;;;;;5.40;1.90;;;;;;;;;;5136140;27;20453;-69
2022/10/04 00:33:45;;;;;;;3.60;1.80;;;;;;;;;;5137053;27;20465;-69
2022/10/04 00:36:31;;;;;;;4.37;1.80;;;;;;;;;;5136845;27;20453;-69
2022/10/04 00:39:14;;;;;;;13.40;2.70;;;;;;;;;;5136351;27;20720;-69
2022/10/04 00:41:54;;;;;;;8.60;2.90;;;;;;;;;;5137736;27;20458;-69
2022/10/04 00:44:23;;;;;;;14.70;4.77;;;;;;;;;;5136364;27;20438;-69
2022/10/04 00:46:52;;;;;;;11.53;5.60;;;;;;;;;;5136916;27;20454;-69
2022/10/04 00:49:21;;;;;;;4.57;1.87;;;;;;;;;;5137464;27;20485;-69
2022/10/04 00:51:52;;;;;;;6.50;1.70;;;;;;;;;;5137474;27;20548;-69
2022/10/04 00:54:22;;;;;;;6.30;1.60;;;;;;;;;;5137805;27;20457;-69
2022/10/04 00:56:51;;;;;;;4.00;1.97;;;;;;;;;;5137630;27;20450;-69
2022/10/04 00:59:27;;;;;;;5.13;1.40;;;;;;;;;;5122090;28;20447;-69
2022/10/04 01:01:56;;;;;;;9.53;1.50;;;;;;;;;;5117789;28;20447;-69
2022/10/04 01:04:27;;;;;;;7.30;1.37;;;;;;;;;;5137135;27;20442;-69
2022/10/04 01:06:54;;;;;;;5.20;1.43;;;;;;;;;;5127769;28;20447;-69
2022/10/04 01:09:23;;;;;;;4.90;1.40;;;;;;;;;;5116792;28;20575;-69
2022/10/04 01:11:56;;;;;;;7.60;1.10;;;;;;;;;;5116694;28;20455;-68
2022/10/04 01:14:30;;;;;;;3.60;1.47;;;;;;;;;;5116934;28;20530;-69
2022/10/04 01:16:57;;;;;;;5.57;2.07;;;;;;;;;;5116795;28;20451;-69
2022/10/04 01:19:29;;;;;;;5.63;2.20;;;;;;;;;;5116561;28;20462;-69
2022/10/04 01:22:03;;;;;;;4.77;1.47;;;;;;;;;;5123962;28;20450;-68
2022/10/04 01:24:34;;;;;;;5.83;1.90;;;;;;;;;;5137256;27;20540;-67
2022/10/04 01:27:05;;;;;;;3.40;1.77;;;;;;;;;;5136951;27;20473;-68
2022/10/04 01:29:32;;;;;;;11.00;3.77;;;;;;;;;;5136022;27;20488;-68
2022/10/04 01:32:00;;;;;;;3.80;1.60;;;;;;;;;;5135835;27;20446;-68
2022/10/04 01:34:31;;;;;;;7.97;1.90;;;;;;;;;;5135640;27;20453;-68
2022/10/04 01:36:59;;;;;;;2.80;1.40;;;;;;;;;;5136563;27;20846;-70
2022/10/04 01:39:27;;;;;;;2.60;1.20;;;;;;;;;;5136160;27;20522;-69
2022/10/04 01:41:57;;;;;;;8.60;1.47;;;;;;;;;;5136046;27;20449;-70
2022/10/04 01:44:26;;;;;;;5.97;1.43;;;;;;;;;;5135283;27;20873;-69
2022/10/04 01:46:55;;;;;;;4.67;1.10;;;;;;;;;;5134174;27;20528;-70
2022/10/04 01:49:26;;;;;;;6.50;1.37;;;;;;;;;;5136147;27;20545;-69
2022/10/04 01:51:56;;;;;;;3.27;1.60;;;;;;;;;;5134880;27;20450;-69
2022/10/04 01:54:31;;;;;;;6.13;1.37;;;;;;;;;;5135889;27;20461;-69
2022/10/04 01:57:01;;;;;;;3.40;1.23;;;;;;;;;;5135381;27;20602;-69
2022/10/04 01:59:30;;;;;;;6.63;1.63;;;;;;;;;;5136128;27;20873;-69
2022/10/04 02:02:03;;;;;;;6.30;1.53;;;;;;;;;;5135140;27;20533;-69
2022/10/04 02:04:33;;;;;;;4.00;1.97;;;;;;;;;;5115869;28;20851;-69
2022/10/04 02:07:00;;;;;;;12.70;1.83;;;;;;;;;;5116242;28;20450;-69
2022/10/04 02:09:29;;;;;;;7.27;1.60;;;;;;;;;;5115030;28;20491;-69
2022/10/04 02:11:57;;;;;;;7.57;1.63;;;;;;;;;;5114345;28;20530;-69
2022/10/04 02:14:26;;;;;;;5.10;1.07;;;;;;;;;;5113647;28;20507;-69
2022/10/04 02:16:53;;;;;;;3.40;1.30;;;;;;;;;;5113834;28;20730;-69
2022/10/04 02:19:23;;;;;;;4.07;1.60;;;;;;;;;;5114200;28;20451;-69
2022/10/04 02:21:50;;;;;;;3.47;1.33;;;;;;;;;;5113236;28;20515;-69
2022/10/04 02:24:17;;;;;;;4.37;1.13;;;;;;;;;;5114746;28;20486;-69
2022/10/04 02:26:49;;;;;;;4.23;1.20;;;;;;;;;;5114330;28;20454;-69
2022/10/04 02:29:19;;;;;;;6.10;1.53;;;;;;;;;;5128956;27;20485;-69
2022/10/04 02:34:33;;;;;;;1.90;0.90;;;;;;;;;;5136757;27;20436;-68
2022/10/04 02:37:02;;;;;;;7.10;1.90;;;;;;;;;;5122325;28;20476;-69
2022/10/04 02:39:32;;;;;;;6.00;1.13;;;;;;;;;;5115151;28;20458;-69
2022/10/04 02:42:01;;;;;;;2.73;1.17;;;;;;;;;;5115498;28;20512;-69
2022/10/04 02:44:30;;;;;;;2.77;1.33;;;;;;;;;;5115733;28;20451;-69
2022/10/04 02:47:05;;;;;;;5.17;1.70;;;;;;;;;;5115265;28;20457;-69
2022/10/04 02:49:36;;;;;;;3.93;1.17;;;;;;;;;;5115157;28;20905;-68
2022/10/04 02:52:07;;;;;;;12.90;1.87;;;;;;;;;;5114955;28;20755;-69
2022/10/04 02:54:37;;;;;;;3.40;1.43;;;;;;;;;;5114328;28;20453;-70
2022/10/04 02:57:04;;;;;;;6.23;1.40;;;;;;;;;;5114945;28;20774;-69
2022/10/04 02:59:32;;;;;;;7.57;1.13;;;;;;;;;;5114191;28;20454;-69
2022/10/04 03:02:00;;;;;;;3.47;1.70;;;;;;;;;;5114862;28;20525;-68
2022/10/04 03:04:28;;;;;;;8.40;2.13;;;;;;;;;;5113109;28;20450;-68
2022/10/04 03:06:56;;;;;;;7.83;1.40;;;;;;;;;;5113682;28;20439;-68
2022/10/04 03:09:24;;;;;;;5.70;1.37;;;;;;;;;;5113524;28;20632;-67
2022/10/04 03:11:52;;;;;;;5.87;1.80;;;;;;;;;;5113424;28;20460;-68
2022/10/04 03:14:20;;;;;;;7.03;2.20;;;;;;;;;;5113596;28;21008;-67
2022/10/04 03:16:49;;;;;;;4.97;2.37;;;;;;;;;;5114096;28;20483;-68
2022/10/04 03:19:18;;;;;;;6.50;2.33;;;;;;;;;;5113435;28;20523;-68
2022/10/04 03:21:46;;;;;;;10.73;3.07;;;;;;;;;;5113634;28;20455;-68
2022/10/04 03:24:17;;;;;;;4.70;2.20;;;;;;;;;;5112973;28;20880;-68
2022/10/04 03:26:46;;;;;;;3.57;1.97;;;;;;;;;;5115959;28;20624;-69
2022/10/04 03:29:17;;;;;;;7.20;3.30;;;;;;;;;;5116607;28;20482;-70
2022/10/04 03:31:46;;;;;;;6.97;2.30;;;;;;;;;;5116660;28;20446;-70
2022/10/04 03:34:14;;;;;;;8.87;2.37;;;;;;;;;;5117391;28;20450;-69
2022/10/04 03:36:43;;;;;;;6.07;2.57;;;;;;;;;;5117401;28;20723;-69
2022/10/04 03:39:11;;;;;;;4.80;1.90;;;;;;;;;;5117649;28;20793;-69
2022/10/04 03:41:39;;;;;;;7.53;2.77;;;;;;;;;;5116820;28;20447;-69
2022/10/04 03:44:07;;;;;;;8.80;2.23;;;;;;;;;;5117041;28;20538;-69
2022/10/04 03:46:36;;;;;;;5.80;2.20;;;;;;;;;;5117900;28;20514;-69
2022/10/04 03:49:06;;;;;;;9.17;2.53;;;;;;;;;;5116176;28;20513;-68
2022/10/04 03:51:33;;;;;;;5.37;2.50;;;;;;;;;;5117195;28;20739;-69
2022/10/04 03:54:05;;;;;;;8.53;2.40;;;;;;;;;;5117135;28;20459;-69
2022/10/04 03:56:34;;;;;;;11.60;2.13;;;;;;;;;;5116199;28;20459;-69
2022/10/04 03:59:03;;;;;;;4.80;2.70;;;;;;;;;;5116729;28;20719;-69
2022/10/04 04:01:36;;;;;;;4.20;2.30;;;;;;;;;;5116116;28;20455;-69
2022/10/04 04:04:06;;;;;;;9.20;2.30;;;;;;;;;;5116342;28;20805;-69
2022/10/04 04:06:38;;;;;;;5.50;2.57;;;;;;;;;;5115996;28;20554;-68
2022/10/04 04:09:06;;;;;;;5.50;1.97;;;;;;;;;;5117076;28;20486;-69
2022/10/04 04:11:34;;;;;;;5.70;1.63;;;;;;;;;;5116184;28;20465;-69
2022/10/04 04:14:03;;;;;;;8.63;2.57;;;;;;;;;;5116089;28;20455;-70
2022/10/04 04:16:31;;;;;;;5.03;2.00;;;;;;;;;;5122609;28;20480;-69
2022/10/04 04:19:01;;;;;;;4.67;2.17;;;;;;;;;;5115299;28;20450;-69
2022/10/04 04:21:29;;;;;;;6.53;2.30;;;;;;;;;;5115944;28;20718;-69
2022/10/04 04:23:57;;;;;;;6.97;2.00;;;;;;;;;;5116088;28;20504;-69
2022/10/04 04:26:28;;;;;;;3.20;1.50;;;;;;;;;;5115298;28;20508;-69
2022/10/04 04:28:56;;;;;;;7.10;1.80;;;;;;;;;;5115044;28;20906;-69
2022/10/04 04:31:25;;;;;;;5.63;2.17;;;;;;;;;;5115306;28;20489;-69
2022/10/04 04:33:56;;;;;;;5.23;1.57;;;;;;;;;;5116343;28;20776;-69
2022/10/04 04:36:25;;;;;;;5.40;1.73;;;;;;;;;;5115179;28;20878;-69
2022/10/04 04:41:39;;;;;;;5.67;2.03;;;;;;;;;;5126796;27;20746;-69
2022/10/04 04:44:17;;;;;;;5.03;1.40;;;;;;;;;;5114487;28;20534;-70
2022/10/04 04:46:44;;;;;;;4.23;1.90;;;;;;;;;;5115865;28;20555;-69
2022/10/04 04:49:12;;;;;;;9.07;2.67;;;;;;;;;;5116269;28;20490;-69
2022/10/04 04:51:40;;;;;;;6.90;2.30;;;;;;;;;;5115420;28;20453;-70
2022/10/04 04:54:07;;;;;;;7.60;2.20;;;;;;;;;;5114064;28;20470;-69
2022/10/04 04:56:35;;;;;;;7.60;2.33;;;;;;;;;;5114679;28;20453;-69
2022/10/04 04:59:05;;;;;;;15.70;3.93;;;;;;;;;;5115866;28;20791;-69
2022/10/04 05:01:34;;;;;;;5.33;2.33;;;;;;;;;;5115383;28;20549;-69
2022/10/04 05:04:02;;;;;;;7.27;2.53;;;;;;;;;;5115992;28;20478;-69
2022/10/04 05:06:30;;;;;;;8.60;2.83;;;;;;;;;;5123884;28;20454;-69
2022/10/04 05:08:57;;;;;;;9.87;2.33;;;;;;;;;;5134966;27;20485;-69
2022/10/04 05:11:27;;;;;;;6.17;2.27;;;;;;;;;;5121162;27;20443;-69
2022/10/04 05:13:56;;;;;;;11.50;3.43;;;;;;;;;;5115273;28;20458;-69
2022/10/04 05:16:26;;;;;;;5.80;2.10;;;;;;;;;;5115431;28;20495;-69
2022/10/04 05:18:56;;;;;;;5.40;2.20;;;;;;;;;;5113273;28;20450;-69
2022/10/04 05:21:25;;;;;;;5.37;1.67;;;;;;;;;;5114074;28;20447;-69
2022/10/04 05:23:56;;;;;;;4.87;1.90;;;;;;;;;;5125162;28;20458;-69
2022/10/04 05:26:26;;;;;;;7.60;2.03;;;;;;;;;;5113020;28;20499;-69
2022/10/04 05:28:54;;;;;;;5.10;1.70;;;;;;;;;;5113764;28;20548;-69
2022/10/04 05:31:30;;;;;;;6.03;2.37;;;;;;;;;;5112687;28;20439;-69
2022/10/04 05:33:58;;;;;;;3.30;1.60;;;;;;;;;;5131772;27;20493;-68
2022/10/04 05:36:40;;;;;;;4.63;1.50;;;;;;;;;;5120195;27;20844;-69
2022/10/04 05:39:10;;;;;;;6.57;2.37;;;;;;;;;;5111468;27;20471;-69
2022/10/04 05:41:41;;;;;;;2.87;1.90;;;;;;;;;;5113347;27;20561;-69
2022/10/04 05:44:24;;;;;;;5.53;2.00;;;;;;;;;;5113629;27;20969;-69
2022/10/04 05:46:53;;;;;;;4.30;1.57;;;;;;;;;;5112045;28;20454;-69
2022/10/04 05:49:21;;;;;;;2.93;1.73;;;;;;;;;;5117188;28;20589;-69
2022/10/04 05:51:49;;;;;;;5.60;2.17;;;;;;;;;;5133467;27;20441;-69
2022/10/04 05:54:20;;;;;;;4.67;1.77;;;;;;;;;;5118545;27;20503;-69
2022/10/04 05:57:14;;;;;;;4.77;2.30;;;;;;;;;;5112178;28;20454;-68
2022/10/04 05:59:54;;;;;;;3.07;1.90;;;;;;;;;;5126083;27;20516;-68
2022/10/04 06:02:28;;;;;;;8.83;2.10;;;;;;;;;;5133415;27;20449;-69
2022/10/04 06:05:02;;;;;;;6.63;2.07;;;;;;;;;;5133277;27;20445;-69
2022/10/04 06:07:30;;;;;;;5.00;2.33;;;;;;;;;;5132807;27;20865;-70
2022/10/04 06:10:03;;;;;;;3.40;1.87;;;;;;;;;;5124603;28;20485;-69
2022/10/04 06:12:41;;;;;;;14.20;2.70;;;;;;;;;;5122735;27;20454;-69
2022/10/04 06:15:16;;;;;;;7.93;2.50;;;;;;;;;;5122750;27;20470;-69
2022/10/04 06:18:01;;;;;;;13.53;3.23;;;;;;;;;;5127682;27;20555;-69
2022/10/04 06:20:44;;;;;;;5.93;1.93;;;;;;;;;;5122820;28;21093;-69
2022/10/04 06:23:14;;;;;;;8.33;1.70;;;;;;;;;;5128411;27;20465;-69
2022/10/04 06:25:46;;;;;;;6.77;2.20;;;;;;;;;;5131455;27;20449;-69
2022/10/04 06:28:15;;;;;;;9.07;2.07;;;;;;;;;;5115598;27;20471;-69
2022/10/04 06:30:52;;;;;;;3.40;1.50;;;;;;;;;;5114310;27;20474;-69
2022/10/04 06:33:26;;;;;;;12.57;2.60;;;;;;;;;;5112950;28;20865;-69
2022/10/04 06:36:00;;;;;;;6.80;2.37;;;;;;;;;;5124476;27;20454;-69
2022/10/04 06:38:32;;;;;;;4.80;2.20;;;;;;;;;;5115246;28;20474;-69
2022/10/04 06:41:08;;;;;;;9.20;2.47;;;;;;;;;;5115680;28;20519;-69
2022/10/04 06:43:46;;;;;;;8.13;1.90;;;;;;;;;;5121267;28;20461;-69
2022/10/04 06:46:16;;;;;;;7.90;2.37;;;;;;;;;;5123630;28;20458;-69
2022/10/04 06:48:58;;;;;;;7.40;2.83;;;;;;;;;;5130480;27;20481;-70
2022/10/04 06:51:39;;;;;;;6.43;2.63;;;;;;;;;;5118029;28;20536;-69
2022/10/04 06:54:13;;;;;;;11.43;3.00;;;;;;;;;;5112096;28;20518;-68
2022/10/04 06:56:47;;;;;;;6.10;2.53;;;;;;;;;;5114001;28;20439;-69
2022/10/04 06:59:23;;;;;;;8.27;2.53;;;;;;;;;;5126579;27;20471;-69
2022/10/04 07:01:52;;;;;;;6.77;2.63;;;;;;;;;;5124312;27;20462;-69
2022/10/04 07:04:30;;;;;;;7.77;2.83;;;;;;;;;;5121369;28;20461;-69
2022/10/04 07:09:46;;;;;;;5.23;2.40;;;;;;;;;;5115030;28;20478;-69
2022/10/04 07:15:06;;;;;;;8.30;2.57;;;;;;;;;;5115129;28;20447;-68
2022/10/04 07:17:41;;;;;;;7.00;2.50;;;;;;;;;;5113533;28;21018;-70
2022/10/04 07:20:17;;;;;;;8.80;2.80;;;;;;;;;;5116663;28;20450;-68
2022/10/04 07:22:55;;;;;;;5.90;2.80;;;;;;;;;;5133471;27;20910;-68
2022/10/04 07:25:26;;;;;;;11.73;6.07;;;;;;;;;;5134171;27;20885;-68
2022/10/04 07:30:41;;;;;;;9.30;2.73;;;;;;;;;;5130123;27;20869;-69
2022/10/04 07:33:16;;;;;;;9.53;2.50;;;;;;;;;;5117137;28;20542;-69
2022/10/04 07:35:45;;;;;;;10.90;2.60;;;;;;;;;;5122548;28;20518;-69
2022/10/04 07:38:18;;;;;;;7.50;2.83;;;;;;;;;;5135835;27;20458;-69
2022/10/04 07:41:02;;;;;;;5.40;2.27;;;;;;;;;;5121660;28;20561;-69
2022/10/04 07:43:30;;;;;;;10.37;2.73;;;;;;;;;;5122813;28;20913;-69
2022/10/04 07:46:03;;;;;;;3.90;2.10;;;;;;;;;;5117684;28;20466;-70
2022/10/04 07:48:33;;;;;;;6.50;2.50;;;;;;;;;;5131292;27;20477;-70
2022/10/04 07:51:08;;;;;;;15.13;4.80;;;;;;;;;;5128870;27;20751;-69
2022/10/04 07:53:41;;;;;;;11.50;2.70;;;;;;;;;;5118683;27;20461;-69
2022/10/04 07:56:13;;;;;;;4.33;2.57;;;;;;;;;;5127801;28;20473;-71
2022/10/04 07:58:45;;;;;;;6.10;3.00;;;;;;;;;;5135187;27;20454;-69
2022/10/04 08:01:18;;;;;;;6.63;3.30;;;;;;;;;;5134019;27;20461;-70
2022/10/04 08:03:52;;;;;;;7.17;2.97;;;;;;;;;;5119189;28;20459;-68
2022/10/04 08:06:29;;;;;;;12.50;3.67;;;;;;;;;;5118600;28;20449;-69
2022/10/04 08:09:06;;;;;;;9.40;2.90;;;;;;;;;;5119242;28;20477;-69
2022/10/04 08:11:42;;;;;;;7.00;3.10;;;;;;;;;;5116983;27;20450;-69
2022/10/04 08:14:20;;;;;;;9.03;2.77;;;;;;;;;;5120086;28;20463;-69
2022/10/04 08:16:53;;;;;;;11.23;3.83;;;;;;;;;;5118109;27;20450;-69
2022/10/04 08:19:32;;;;;;;9.57;2.90;;;;;;;;;;5114135;28;20545;-70
2022/10/04 08:22:03;;;;;;;8.93;3.80;;;;;;;;;;5117360;28;20549;-70
2022/10/04 08:24:46;;;;;;;7.50;3.53;;;;;;;;;;5128219;28;20957;-70
2022/10/04 08:27:26;;;;;;;9.17;3.77;;;;;;;;;;5114530;28;20634;-70
2022/10/04 08:30:04;;;;;;;16.10;4.50;;;;;;;;;;5120331;28;20490;-70
2022/10/04 08:32:42;;;;;;;6.90;3.83;;;;;;;;;;5129432;27;20523;-69
2022/10/04 08:35:24;;;;;;;9.13;3.90;;;;;;;;;;5123890;28;20918;-69
2022/10/04 08:38:00;;;;;;;8.73;3.80;;;;;;;;;;5122013;27;20478;-70
2022/10/04 08:40:57;;;;;;;7.00;4.10;;;;;;;;;;5133045;27;20489;-69
2022/10/04 08:43:49;;;;;;;6.60;3.13;;;;;;;;;;5117425;27;20944;-69
2022/10/04 08:46:41;;;;;;;6.50;3.60;;;;;;;;;;5126475;27;20481;-70
2022/10/04 08:49:25;;;;;;;6.03;3.53;;;;;;;;;;5135811;27;20495;-69
2022/10/04 08:52:19;;;;;;;12.07;3.50;;;;;;;;;;5120180;28;20765;-70
2022/10/04 08:55:20;;;;;;;9.70;3.23;;;;;;;;;;5127323;27;20458;-69
2022/10/04 08:58:02;;;;;;;9.77;4.00;;;;;;;;;;5120053;28;20454;-69
2022/10/04 09:00:33;;;;;;;11.03;4.03;;;;;;;;;;5116375;27;20470;-69
2022/10/04 09:03:09;;;;;;;9.80;3.77;;;;;;;;;;5124942;28;20779;-68
2022/10/04 09:05:52;;;;;;;12.20;3.73;;;;;;;;;;5131277;27;20517;-69
2022/10/04 09:08:37;;;;;;;7.93;3.50;;;;;;;;;;5128926;27;20449;-69
2022/10/04 09:11:22;;;;;;;13.07;3.00;;;;;;;;;;5133109;27;20868;-70
2022/10/04 09:14:01;;;;;;;9.27;2.90;;;;;;;;;;5128475;27;20467;-69
2022/10/04 09:16:35;;;;;;;12.90;3.63;;;;;;;;;;5112020;28;20788;-69
2022/10/04 09:19:20;;;;;;;6.40;3.33;;;;;;;;;;5113330;28;20465;-69
2022/10/04 09:22:03;;;;;;;7.90;3.43;;;;;;;;;;5117386;28;20550;-70
2022/10/04 09:24:53;;;;;;;12.40;2.90;;;;;;;;;;5126228;27;20454;-71
2022/10/04 09:27:31;;;;;;;4.10;2.23;;;;;;;;;;5119589;27;20452;-69
2022/10/04 09:30:17;;;;;;;14.93;3.13;;;;;;;;;;5124171;27;20851;-70
2022/10/04 09:33:06;;;;;;;5.03;2.10;;;;;;;;;;5118918;27;20490;-70
2022/10/04 09:35:57;;;;;;;;;;;;;;;;;;;;;
2022/10/04 09:38:42;;;;;;;4.33;2.33;;;;;;;;;;5115569;27;20461;-70
2022/10/04 09:41:38;;;;;;;11.10;2.57;;;;;;;;;;5123870;27;20474;-71
2022/10/04 09:44:23;;;;;;;9.07;2.70;;;;;;;;;;5126541;27;20469;-69
2022/10/04 09:47:18;;;;;;;9.70;2.77;;;;;;;;;;5090950;27;20511;-70
2022/10/04 09:49:59;;;;;;;15.10;3.67;;;;;;;;;;5116753;28;20581;-69
2022/10/04 09:52:34;;;;;;;9.20;2.80;;;;;;;;;;5112220;28;20917;-68
2022/10/04 09:55:07;;;;;;;6.47;3.40;;;;;;;;;;5111762;27;20466;-70
2022/10/04 09:57:45;;;;;;;5.97;2.83;;;;;;;;;;5103406;27;20465;-69
2022/10/04 10:00:23;;;;;;;7.53;3.37;;;;;;;;;;5114900;27;20766;-70
2022/10/04 10:03:07;;;;;;;9.43;3.30;;;;;;;;;;5107546;28;20454;-69
2022/10/04 10:05:55;;;;;;;7.13;3.80;;;;;;;;;;5118252;27;20470;-69
2022/10/04 10:08:29;;;;;;;10.00;5.20;;;;;;;;;;5105518;28;20469;-69
2022/10/04 10:14:10;;;;;;;12.23;3.80;;;;;;;;;;5126337;27;20896;-70
2022/10/04 10:16:45;;;;;;;7.37;3.13;;;;;;;;;;5116094;28;20463;-69
2022/10/04 10:19:21;;;;;;;6.80;3.50;;;;;;;;;;5117181;27;20481;-71
2022/10/04 10:21:53;;;;;;;9.13;6.33;;;;;;;;;;5115687;28;20459;-71
2022/10/04 10:24:46;;;;;;;8.30;2.80;;;;;;;;;;5122373;27;20455;-71
2022/10/04 10:27:27;;;;;;;13.23;3.30;;;;;;;;;;5115499;28;20544;-71
2022/10/04 10:30:15;;;;;;;10.70;2.90;;;;;;;;;;5112619;28;20474;-70
2022/10/04 10:33:05;;;;;;;6.37;2.60;;;;;;;;;;5116609;28;20450;-70
2022/10/04 10:35:41;;;;;;;9.70;2.80;;;;;;;;;;5126450;27;20476;-69
2022/10/04 10:38:28;;;;;;;10.13;3.40;;;;;;;;;;5125269;27;20969;-70
2022/10/04 10:41:06;;;;;;;7.67;2.70;;;;;;;;;;5120452;27;20519;-71
2022/10/04 10:44:00;;;;;;;5.60;2.63;;;;;;;;;;5132742;27;20460;-69
2022/10/04 10:46:43;;;;;;;7.80;3.57;;;;;;;;;;5132101;27;20467;-69
2022/10/04 10:49:24;;;;;;;5.70;2.30;;;;;;;;;;5128192;27;20581;-71
2022/10/04 10:52:09;;;;;;;7.67;3.90;;;;;;;;;;5119198;27;20454;-70
2022/10/04 10:54:54;;;;;;;8.47;3.43;;;;;;;;;;5103225;27;20470;-69
2022/10/04 10:57:35;;;;;;;7.87;3.47;;;;;;;;;;5130392;27;20925;-68
2022/10/04 11:00:26;;;;;;;6.10;2.00;;;;;;;;;;5119959;27;20470;-71
2022/10/04 11:03:12;;;;;;;7.77;2.60;;;;;;;;;;5129471;27;20454;-70
2022/10/04 11:05:56;;;;;;;17.10;2.80;;;;;;;;;;5120824;27;20485;-68
2022/10/04 11:08:42;;;;;;;8.80;3.00;;;;;;;;;;5128257;27;20466;-69
2022/10/04 11:11:31;;;;;;;6.10;2.73;;;;;;;;;;5121622;27;20938;-70
2022/10/04 11:14:14;;;;;;;12.20;3.60;;;;;;;;;;5121966;27;20490;-71
2022/10/04 11:16:58;;;;;;;7.67;3.30;;;;;;;;;;5121944;27;20458;-71
2022/10/04 11:19:47;;;;;;;5.43;2.57;;;;;;;;;;5126177;27;20462;-70
2022/10/04 11:22:43;;;;;;;5.73;2.43;;;;;;;;;;5115614;27;20946;-70
2022/10/04 11:25:33;;;;;;;5.87;2.97;;;;;;;;;;5118682;27;20506;-69
2022/10/04 11:28:05;;;;;;;8.33;2.87;;;;;;;;;;5106417;27;20527;-71
2022/10/04 11:30:51;;;;;;;9.10;3.60;;;;;;;;;;5126366;27;20501;-71
2022/10/04 11:33:29;;;;;;;6.20;2.27;;;;;;;;;;5126116;27;20460;-70
2022/10/04 11:36:11;;;;;;;4.33;2.40;;;;;;;;;;5135757;27;20517;-70
2022/10/04 11:38:52;;;;;;;7.33;1.90;;;;;;;;;;5102092;27;20474;-70
2022/10/04 11:41:23;;;;;;;5.93;3.10;;;;;;;;;;5118163;27;20546;-70
2022/10/04 11:44:07;;;;;;;7.27;2.40;;;;;;;;;;5117758;27;20451;-70
2022/10/04 11:46:42;;;;;;;7.20;2.10;;;;;;;;;;5119764;27;20913;-69
2022/10/04 11:49:20;;;;;;;9.57;2.30;;;;;;;;;;5128481;27;20811;-72
2022/10/04 11:52:03;;;;;;;5.67;2.50;;;;;;;;;;5131475;27;20521;-71
2022/10/04 11:54:49;;;;;;;10.30;2.33;;;;;;;;;;5117420;28;20465;-70
2022/10/04 11:57:25;;;;;;;9.70;2.00;;;;;;;;;;5124478;27;20513;-71
2022/10/04 11:59:57;;;;;;;6.30;1.90;;;;;;;;;;5114079;28;20889;-71
2022/10/04 12:02:47;;;;;;;3.60;1.40;;;;;;;;;;5114536;28;20463;-71
2022/10/04 12:05:21;;;;;;;5.80;2.43;;;;;;;;;;5114428;28;20553;-71
2022/10/04 12:07:57;;;;;;;6.20;2.07;;;;;;;;;;5113922;28;20905;-72
2022/10/04 12:10:28;;;;;;;5.63;1.40;;;;;;;;;;5113591;27;20553;-71
2022/10/04 12:13:05;;;;;;;6.30;3.20;;;;;;;;;;5115510;28;21028;-71
2022/10/04 12:15:41;;;;;;;6.37;1.97;;;;;;;;;;5119639;27;20457;-71
2022/10/04 12:18:41;;;;;;;7.60;2.80;;;;;;;;;;5120085;27;20477;-71
2022/10/04 12:21:27;;;;;;;6.10;1.47;;;;;;;;;;5032493;28;20456;-69
2022/10/04 12:24:03;;;;;;;6.10;2.03;;;;;;;;;;5034846;28;20464;-72
2022/10/04 12:26:46;;;;;;;5.40;1.77;;;;;;;;;;5099401;28;20478;-70
2022/10/04 12:29:31;;;;;;;4.70;1.40;;;;;;;;;;5119767;28;20500;-71
2022/10/04 12:32:00;;;;;;;10.13;3.33;;;;;;;;;;5118498;27;20958;-70
2022/10/04 12:34:30;;;;;;;8.33;2.90;;;;;;;;;;5118036;27;20474;-70
2022/10/04 12:37:15;;;;;;;5.53;2.80;;;;;;;;;;5121314;27;20465;-71
2022/10/04 12:39:56;;;;;;;3.57;1.57;;;;;;;;;;5120814;28;20770;-71
2022/10/04 12:42:37;;;;;;;5.43;1.47;;;;;;;;;;5132282;27;20490;-71
2022/10/04 12:45:18;;;;;;;3.77;0.90;;;;;;;;;;5117083;28;20473;-71
2022/10/04 12:48:04;;;;;;;5.00;1.70;;;;;;;;;;5129995;27;20469;-71
2022/10/04 12:50:44;;;;;;;6.53;1.70;;;;;;;;;;5114235;28;20566;-71
2022/10/04 12:53:15;;;;;;;4.13;1.47;;;;;;;;;;5121506;27;20465;-72
2022/10/04 12:55:57;;;;;;;4.17;1.17;;;;;;;;;;5121951;28;20451;-71
2022/10/04 12:58:29;;;;;;;2.33;1.10;;;;;;;;;;5095907;28;20569;-69
2022/10/04 13:00:59;;;;;;;6.23;1.73;;;;;;;;;;5097771;28;20447;-71
2022/10/04 13:03:32;;;;;;;4.30;1.40;;;;;;;;;;5109472;27;20574;-71
2022/10/04 13:06:07;;;;;;;7.53;1.47;;;;;;;;;;5130295;27;20465;-71
2022/10/04 13:08:45;;;;;;;5.53;2.20;;;;;;;;;;5118647;27;20469;-71
2022/10/04 13:11:31;;;;;;;8.07;1.70;;;;;;;;;;5117941;28;20898;-72
2022/10/04 13:14:06;;;;;;;7.70;2.10;;;;;;;;;;5119036;28;20463;-71
2022/10/04 13:16:43;;;;;;;4.40;1.43;;;;;;;;;;5114071;28;20493;-72
2022/10/04 13:19:24;;;;;;;3.67;2.43;;;;;;;;;;5116777;27;20529;-72
2022/10/04 13:22:00;;;;;;;8.23;1.33;;;;;;;;;;5125909;27;20770;-71
2022/10/04 13:24:31;;;;;;;11.23;3.53;;;;;;;;;;5112893;28;20558;-71
2022/10/04 13:27:19;;;;;;;12.40;2.70;;;;;;;;;;5122239;28;20812;-71
2022/10/04 13:29:53;;;;;;;7.83;1.70;;;;;;;;;;5124056;27;20489;-71
2022/10/04 13:32:27;;;;;;;7.87;1.20;;;;;;;;;;5123101;27;20503;-71
2022/10/04 13:34:57;;;;;;;4.40;1.70;;;;;;;;;;5118315;28;20465;-71
2022/10/04 13:37:32;;;;;;;5.13;2.20;;;;;;;;;;5122074;27;20491;-73
2022/10/04 13:40:12;;;;;;;5.33;2.10;;;;;;;;;;5112708;27;20557;-71
2022/10/04 13:42:53;;;;;;;8.20;2.83;;;;;;;;;;5112627;28;20863;-72
2022/10/04 13:45:48;;;;;;;3.97;2.07;;;;;;;;;;5114013;27;20501;-72
2022/10/04 13:48:50;;;;;;;6.90;3.10;;;;;;;;;;5122638;27;20452;-72
2022/10/04 13:51:39;;;;;;;10.77;3.33;;;;;;;;;;5131011;27;20469;-72
2022/10/04 13:57:12;;;;;;;6.93;2.27;;;;;;;;;;5120932;27;21051;-72
2022/10/04 13:59:45;;;;;;;5.40;1.53;;;;;;;;;;5122294;27;20564;-71
2022/10/04 14:05:36;;;;;;;6.07;1.70;;;;;;;;;;5113203;28;20462;-70
2022/10/04 14:08:24;;;;;;;5.67;1.83;;;;;;;;;;5112523;28;20442;-71
2022/10/04 14:11:07;;;;;;;6.30;1.70;;;;;;;;;;5104812;28;20979;-71
2022/10/04 14:13:49;;;;;;;8.70;1.60;;;;;;;;;;5115650;28;20458;-70
2022/10/04 14:16:34;;;;;;;8.73;2.47;;;;;;;;;;5122269;28;20450;-69
2022/10/04 14:19:23;;;;;;;4.40;1.10;;;;;;;;;;5100935;27;20458;-71
2022/10/04 14:22:12;;;;;;;5.27;2.00;;;;;;;;;;5106790;28;20486;-70
2022/10/04 14:25:06;;;;;;;6.53;1.37;;;;;;;;;;5121371;27;20454;-70
2022/10/04 14:27:58;;;;;;;8.20;2.73;;;;;;;;;;5121231;27;20523;-70
2022/10/04 14:30:29;;;;;;;3.40;2.20;;;;;;;;;;5115271;28;21086;-70
2022/10/04 14:33:09;;;;;;;7.67;2.27;;;;;;;;;;5119670;28;20466;-70
2022/10/04 14:35:45;;;;;;;5.10;1.30;;;;;;;;;;5119172;28;20465;-70
2022/10/04 14:38:31;;;;;;;4.07;1.27;;;;;;;;;;5130099;27;20477;-71
2022/10/04 14:41:13;;;;;;;5.40;1.80;;;;;;;;;;5120040;28;20878;-69
2022/10/04 14:49:59;;;;;;;4.17;1.40;;;;;;;;;;5121681;28;20480;-70
2022/10/04 14:52:33;;;;;;;8.33;2.20;;;;;;;;;;5116794;27;20455;-70
2022/10/04 14:55:10;;;;;;;3.83;1.90;;;;;;;;;;5122462;27;20446;-69
2022/10/04 14:57:50;;;;;;;8.73;2.10;;;;;;;;;;5123819;28;21071;-71
2022/10/04 15:00:22;;;;;;;5.50;2.23;;;;;;;;;;5124466;27;20461;-70
2022/10/04 15:03:19;;;;;;;4.63;2.40;;;;;;;;;;5126800;27;20526;-70
2022/10/04 15:06:02;;;;;;;4.07;1.80;;;;;;;;;;5119814;28;20822;-70
2022/10/04 15:08:55;;;;;;;3.87;1.50;;;;;;;;;;5101469;28;20446;-70
2022/10/04 15:11:34;;;;;;;5.20;2.20;;;;;;;;;;5119362;28;20458;-69
2022/10/04 15:14:05;;;;;;;4.60;1.90;;;;;;;;;;5111578;28;20477;-69
2022/10/04 15:16:53;;;;;;;3.10;1.33;;;;;;;;;;5112125;28;20441;-69
2022/10/04 15:19:27;;;;;;;4.37;0.90;;;;;;;;;;5114721;27;20450;-70
2022/10/04 15:22:00;;;;;;;6.00;1.50;;;;;;;;;;5115095;28;20465;-70
2022/10/04 15:24:30;;;;;;;4.47;1.27;;;;;;;;;;5125286;27;20473;-70
2022/10/04 15:27:21;;;;;;;3.73;1.23;;;;;;;;;;5129345;27;21020;-69
2022/10/04 15:29:57;;;;;;;5.13;1.13;;;;;;;;;;5113623;28;20505;-71
2022/10/04 15:32:30;;;;;;;2.07;1.10;;;;;;;;;;5126092;27;20470;-69
2022/10/04 15:35:03;;;;;;;3.07;1.10;;;;;;;;;;5126672;28;20468;-69
2022/10/04 15:37:40;;;;;;;5.93;2.27;;;;;;;;;;5115395;28;20460;-68
2022/10/04 15:40:25;;;;;;;3.03;1.47;;;;;;;;;;5115022;28;20984;-70
2022/10/04 15:43:00;;;;;;;3.40;1.17;;;;;;;;;;5115881;28;20454;-70
2022/10/04 15:45:34;;;;;;;6.47;1.87;;;;;;;;;;5122291;27;20488;-69
2022/10/04 15:48:09;;;;;;;3.63;2.07;;;;;;;;;;5120867;28;20461;-70
2022/10/04 15:50:43;;;;;;;4.90;2.33;;;;;;;;;;5114348;28;20573;-68
2022/10/04 15:53:23;;;;;;;4.03;1.60;;;;;;;;;;5116046;27;20447;-68
2022/10/04 15:56:04;;;;;;;3.87;1.50;;;;;;;;;;5122171;27;20941;-69
2022/10/04 15:58:46;;;;;;;4.83;1.70;;;;;;;;;;5118008;28;20446;-71
2022/10/04 16:01:35;;;;;;;6.50;2.10;;;;;;;;;;5118683;27;20450;-69
2022/10/04 16:04:29;;;;;;;3.10;1.43;;;;;;;;;;5115792;27;20531;-69